sensor_id;sensor_type;location;lat;lon;timestamp;temperature;humidity
30399;DHT22;17195;50.838;7.214;2022-07-03T00:01:20;16.50;99.90
30399;DHT22;17195;50.838;7.214;2022-07-03T00:03:45;16.50;99.90
30399;DHT22;17195;50.838;7.214;2022-07-03T00:06:11;16.40;99.90
30399;DHT22;17195;50.838;7.214;2022-07-03T00:08:37;16.40;99.90
30399;DHT22;17195;50.838;7.214;2022-07-03T00:11:04;16.40;99.90
30399;DHT22;17195;50.838;7.214;2022-07-03T00:13:30;16.30;99.90
30399;DHT22;17195;50.838;7.214;2022-07-03T00:15:55;16.30;99.90
30399;DHT22;17195;50.838;7.214;2022-07-03T00:18:21;16.20;99.90
30399;DHT22;17195;50.838;7.214;2022-07-03T00:21:03;16.20;99.90
30399;DHT22;17195;50.838;7.214;2022-07-03T00:24:02;16.10;99.90
30399;DHT22;17195;50.838;7.214;2022-07-03T00:26:26;16.10;99.90
30399;DHT22;17195;50.838;7.214;2022-07-03T00:28:56;16.00;99.90
30399;DHT22;17195;50.838;7.214;2022-07-03T00:31:22;16.00;99.90
30399;DHT22;17195;50.838;7.214;2022-07-03T00:33:49;16.00;99.90
30399;DHT22;17195;50.838;7.214;2022-07-03T00:36:17;15.90;99.90
30399;DHT22;17195;50.838;7.214;2022-07-03T00:38:42;15.90;99.90
30399;DHT22;17195;50.838;7.214;2022-07-03T00:41:24;15.80;99.90
30399;DHT22;17195;50.838;7.214;2022-07-03T00:43:50;15.80;99.90
30399;DHT22;17195;50.838;7.214;2022-07-03T00:46:17;15.80;99.90
30399;DHT22;17195;50.838;7.214;2022-07-03T00:48:46;15.70;99.90
30399;DHT22;17195;50.838;7.214;2022-07-03T00:51:14;15.60;99.90
30399;DHT22;17195;50.838;7.214;2022-07-03T00:53:46;15.70;99.90
30399;DHT22;17195;50.838;7.214;2022-07-03T00:56:13;15.60;99.90
30399;DHT22;17195;50.838;7.214;2022-07-03T00:58:40;15.60;99.90
30399;DHT22;17195;50.838;7.214;2022-07-03T01:01:07;15.60;99.90
30399;DHT22;17195;50.838;7.214;2022-07-03T01:03:39;15.50;99.90
30399;DHT22;17195;50.838;7.214;2022-07-03T01:06:13;15.40;99.90
30399;DHT22;17195;50.838;7.214;2022-07-03T01:09:05;15.40;99.90
30399;DHT22;17195;50.838;7.214;2022-07-03T01:11:37;15.40;99.90
30399;DHT22;17195;50.838;7.214;2022-07-03T01:17:00;15.30;99.90
30399;DHT22;17195;50.838;7.214;2022-07-03T01:19:30;15.20;99.90
30399;DHT22;17195;50.838;7.214;2022-07-03T01:27:09;15.10;99.90
30399;DHT22;17195;50.838;7.214;2022-07-03T01:29:51;15.00;99.90
30399;DHT22;17195;50.838;7.214;2022-07-03T01:32:19;15.00;99.90
30399;DHT22;17195;50.838;7.214;2022-07-03T01:34:52;14.90;99.90
30399;DHT22;17195;50.838;7.214;2022-07-03T01:37:20;14.90;99.90
30399;DHT22;17195;50.838;7.214;2022-07-03T01:39:51;14.80;99.90
30399;DHT22;17195;50.838;7.214;2022-07-03T01:42:18;14.80;99.90
30399;DHT22;17195;50.838;7.214;2022-07-03T01:44:47;14.70;99.90
30399;DHT22;17195;50.838;7.214;2022-07-03T01:47:14;14.70;99.90
30399;DHT22;17195;50.838;7.214;2022-07-03T01:49:41;14.70;99.90
30399;DHT22;17195;50.838;7.214;2022-07-03T01:52:09;14.70;99.90
30399;DHT22;17195;50.838;7.214;2022-07-03T01:54:38;14.60;99.90
30399;DHT22;17195;50.838;7.214;2022-07-03T01:57:05;14.60;99.90
30399;DHT22;17195;50.838;7.214;2022-07-03T01:59:31;14.60;99.90
30399;DHT22;17195;50.838;7.214;2022-07-03T02:02:29;14.60;99.90
30399;DHT22;17195;50.838;7.214;2022-07-03T02:05:07;14.50;99.90
30399;DHT22;17195;50.838;7.214;2022-07-03T02:10:25;14.50;99.90
30399;DHT22;17195;50.838;7.214;2022-07-03T02:13:02;14.50;99.90
30399;DHT22;17195;50.838;7.214;2022-07-03T02:15:31;14.40;99.90
30399;DHT22;17195;50.838;7.214;2022-07-03T02:18:00;14.40;99.90
30399;DHT22;17195;50.838;7.214;2022-07-03T02:20:26;14.40;99.90
30399;DHT22;17195;50.838;7.214;2022-07-03T02:23:00;14.30;99.90
30399;DHT22;17195;50.838;7.214;2022-07-03T02:25:38;14.30;99.90
30399;DHT22;17195;50.838;7.214;2022-07-03T02:30:43;14.20;99.90
30399;DHT22;17195;50.838;7.214;2022-07-03T02:33:11;14.20;99.90
30399;DHT22;17195;50.838;7.214;2022-07-03T02:35:37;14.20;99.90
30399;DHT22;17195;50.838;7.214;2022-07-03T02:38:18;14.10;99.90
30399;DHT22;17195;50.838;7.214;2022-07-03T02:41:10;14.10;99.90
30399;DHT22;17195;50.838;7.214;2022-07-03T02:43:56;14.00;99.90
30399;DHT22;17195;50.838;7.214;2022-07-03T02:46:37;14.00;99.90
30399;DHT22;17195;50.838;7.214;2022-07-03T02:52:32;14.00;99.90
30399;DHT22;17195;50.838;7.214;2022-07-03T02:55:05;14.00;99.90
30399;DHT22;17195;50.838;7.214;2022-07-03T02:57:38;14.00;99.90
30399;DHT22;17195;50.838;7.214;2022-07-03T03:00:09;13.90;99.90
30399;DHT22;17195;50.838;7.214;2022-07-03T03:02:54;13.90;99.90
30399;DHT22;17195;50.838;7.214;2022-07-03T03:05:30;13.90;99.90
30399;DHT22;17195;50.838;7.214;2022-07-03T03:08:05;13.90;99.90
30399;DHT22;17195;50.838;7.214;2022-07-03T03:10:36;13.80;99.90
30399;DHT22;17195;50.838;7.214;2022-07-03T03:13:11;13.80;99.90
30399;DHT22;17195;50.838;7.214;2022-07-03T03:15:39;13.80;99.90
30399;DHT22;17195;50.838;7.214;2022-07-03T03:18:10;13.80;99.90
30399;DHT22;17195;50.838;7.214;2022-07-03T03:20:38;13.80;99.90
30399;DHT22;17195;50.838;7.214;2022-07-03T03:25:36;13.70;99.90
30399;DHT22;17195;50.838;7.214;2022-07-03T03:28:01;13.70;99.90
30399;DHT22;17195;50.838;7.214;2022-07-03T03:30:27;13.70;99.90
30399;DHT22;17195;50.838;7.214;2022-07-03T03:32:54;13.70;99.90
30399;DHT22;17195;50.838;7.214;2022-07-03T03:35:19;13.60;99.90
30399;DHT22;17195;50.838;7.214;2022-07-03T03:37:45;13.60;99.90
30399;DHT22;17195;50.838;7.214;2022-07-03T03:40:15;13.60;99.90
30399;DHT22;17195;50.838;7.214;2022-07-03T03:42:40;13.70;99.90
30399;DHT22;17195;50.838;7.214;2022-07-03T03:45:06;13.60;99.90
30399;DHT22;17195;50.838;7.214;2022-07-03T03:47:34;13.60;99.90
30399;DHT22;17195;50.838;7.214;2022-07-03T03:50:01;13.70;99.90
30399;DHT22;17195;50.838;7.214;2022-07-03T03:52:26;13.60;99.90
30399;DHT22;17195;50.838;7.214;2022-07-03T03:54:53;13.60;99.90
30399;DHT22;17195;50.838;7.214;2022-07-03T03:57:20;13.60;99.90
30399;DHT22;17195;50.838;7.214;2022-07-03T03:59:47;13.60;99.90
30399;DHT22;17195;50.838;7.214;2022-07-03T04:02:13;13.60;99.90
30399;DHT22;17195;50.838;7.214;2022-07-03T04:04:38;13.70;99.90
30399;DHT22;17195;50.838;7.214;2022-07-03T04:07:04;13.70;99.90
30399;DHT22;17195;50.838;7.214;2022-07-03T04:09:30;13.70;99.90
30399;DHT22;17195;50.838;7.214;2022-07-03T04:11:56;13.70;99.90
30399;DHT22;17195;50.838;7.214;2022-07-03T04:14:22;13.80;99.90
30399;DHT22;17195;50.838;7.214;2022-07-03T04:16:47;13.80;99.90
30399;DHT22;17195;50.838;7.214;2022-07-03T04:19:13;13.90;99.90
30399;DHT22;17195;50.838;7.214;2022-07-03T04:21:38;13.90;99.90
30399;DHT22;17195;50.838;7.214;2022-07-03T04:24:04;14.00;99.90
30399;DHT22;17195;50.838;7.214;2022-07-03T04:26:30;14.00;99.90
30399;DHT22;17195;50.838;7.214;2022-07-03T04:28:55;14.10;99.90
30399;DHT22;17195;50.838;7.214;2022-07-03T04:31:21;14.20;99.90
30399;DHT22;17195;50.838;7.214;2022-07-03T04:33:46;14.20;99.90
30399;DHT22;17195;50.838;7.214;2022-07-03T04:36:12;14.30;99.90
30399;DHT22;17195;50.838;7.214;2022-07-03T04:38:37;14.40;99.90
30399;DHT22;17195;50.838;7.214;2022-07-03T04:41:03;14.50;99.90
30399;DHT22;17195;50.838;7.214;2022-07-03T04:43:28;14.60;99.90
30399;DHT22;17195;50.838;7.214;2022-07-03T04:45:54;14.70;99.90
30399;DHT22;17195;50.838;7.214;2022-07-03T04:48:19;14.90;99.90
30399;DHT22;17195;50.838;7.214;2022-07-03T04:50:45;15.10;99.90
30399;DHT22;17195;50.838;7.214;2022-07-03T04:53:11;15.20;99.90
30399;DHT22;17195;50.838;7.214;2022-07-03T04:55:36;15.40;99.90
30399;DHT22;17195;50.838;7.214;2022-07-03T04:58:02;15.60;99.90
30399;DHT22;17195;50.838;7.214;2022-07-03T05:00:28;15.70;99.90
30399;DHT22;17195;50.838;7.214;2022-07-03T05:02:53;15.80;99.90
30399;DHT22;17195;50.838;7.214;2022-07-03T05:05:19;15.90;99.90
30399;DHT22;17195;50.838;7.214;2022-07-03T05:07:45;16.00;99.90
30399;DHT22;17195;50.838;7.214;2022-07-03T05:10:10;16.00;99.90
30399;DHT22;17195;50.838;7.214;2022-07-03T05:12:36;16.10;99.90
30399;DHT22;17195;50.838;7.214;2022-07-03T05:15:01;16.10;99.90
30399;DHT22;17195;50.838;7.214;2022-07-03T05:17:27;16.10;99.90
30399;DHT22;17195;50.838;7.214;2022-07-03T05:19:53;16.10;99.90
30399;DHT22;17195;50.838;7.214;2022-07-03T05:22:38;16.20;99.90
30399;DHT22;17195;50.838;7.214;2022-07-03T05:25:04;16.30;99.90
30399;DHT22;17195;50.838;7.214;2022-07-03T05:27:30;16.30;99.90
30399;DHT22;17195;50.838;7.214;2022-07-03T05:29:55;16.40;99.90
30399;DHT22;17195;50.838;7.214;2022-07-03T05:32:21;16.50;99.90
30399;DHT22;17195;50.838;7.214;2022-07-03T05:34:46;16.50;99.90
30399;DHT22;17195;50.838;7.214;2022-07-03T05:37:12;16.70;99.90
30399;DHT22;17195;50.838;7.214;2022-07-03T05:39:37;16.80;99.90
30399;DHT22;17195;50.838;7.214;2022-07-03T05:42:04;16.90;99.90
30399;DHT22;17195;50.838;7.214;2022-07-03T05:44:30;17.00;99.90
30399;DHT22;17195;50.838;7.214;2022-07-03T05:46:56;17.10;99.90
30399;DHT22;17195;50.838;7.214;2022-07-03T05:49:21;17.20;99.90
30399;DHT22;17195;50.838;7.214;2022-07-03T05:51:47;17.40;99.90
30399;DHT22;17195;50.838;7.214;2022-07-03T05:54:13;17.40;99.90
30399;DHT22;17195;50.838;7.214;2022-07-03T05:56:38;17.60;99.90
30399;DHT22;17195;50.838;7.214;2022-07-03T05:59:04;17.70;99.90
30399;DHT22;17195;50.838;7.214;2022-07-03T06:01:29;17.80;99.90
30399;DHT22;17195;50.838;7.214;2022-07-03T06:03:55;18.00;99.90
30399;DHT22;17195;50.838;7.214;2022-07-03T06:06:20;18.00;99.90
30399;DHT22;17195;50.838;7.214;2022-07-03T06:08:46;18.10;99.90
30399;DHT22;17195;50.838;7.214;2022-07-03T06:11:11;18.20;99.90
30399;DHT22;17195;50.838;7.214;2022-07-03T06:13:37;18.20;99.90
30399;DHT22;17195;50.838;7.214;2022-07-03T06:16:03;18.20;99.90
30399;DHT22;17195;50.838;7.214;2022-07-03T06:18:28;18.40;99.90
30399;DHT22;17195;50.838;7.214;2022-07-03T06:20:54;18.50;99.90
30399;DHT22;17195;50.838;7.214;2022-07-03T06:23:19;18.60;99.90
30399;DHT22;17195;50.838;7.214;2022-07-03T06:25:45;18.70;99.90
30399;DHT22;17195;50.838;7.214;2022-07-03T06:28:10;18.90;99.90
30399;DHT22;17195;50.838;7.214;2022-07-03T06:30:36;18.90;99.90
30399;DHT22;17195;50.838;7.214;2022-07-03T06:33:02;19.00;99.90
30399;DHT22;17195;50.838;7.214;2022-07-03T06:35:27;19.00;99.90
30399;DHT22;17195;50.838;7.214;2022-07-03T06:37:53;19.20;99.90
30399;DHT22;17195;50.838;7.214;2022-07-03T06:40:18;19.30;99.90
30399;DHT22;17195;50.838;7.214;2022-07-03T06:42:44;19.40;99.90
30399;DHT22;17195;50.838;7.214;2022-07-03T06:45:10;19.50;99.90
30399;DHT22;17195;50.838;7.214;2022-07-03T06:47:39;19.60;99.90
30399;DHT22;17195;50.838;7.214;2022-07-03T06:50:06;19.70;99.90
30399;DHT22;17195;50.838;7.214;2022-07-03T06:52:31;19.70;99.90
30399;DHT22;17195;50.838;7.214;2022-07-03T06:54:57;19.80;99.90
30399;DHT22;17195;50.838;7.214;2022-07-03T06:57:23;19.80;99.90
30399;DHT22;17195;50.838;7.214;2022-07-03T06:59:48;19.90;99.90
30399;DHT22;17195;50.838;7.214;2022-07-03T07:02:14;19.90;99.90
30399;DHT22;17195;50.838;7.214;2022-07-03T07:04:40;20.00;99.90
30399;DHT22;17195;50.838;7.214;2022-07-03T07:07:05;20.10;99.90
30399;DHT22;17195;50.838;7.214;2022-07-03T07:09:31;20.20;99.90
30399;DHT22;17195;50.838;7.214;2022-07-03T07:11:56;20.20;99.90
30399;DHT22;17195;50.838;7.214;2022-07-03T07:14:22;20.30;99.90
30399;DHT22;17195;50.838;7.214;2022-07-03T07:16:47;20.40;99.90
30399;DHT22;17195;50.838;7.214;2022-07-03T07:19:13;20.50;99.90
30399;DHT22;17195;50.838;7.214;2022-07-03T07:21:39;20.60;99.90
30399;DHT22;17195;50.838;7.214;2022-07-03T07:24:04;20.70;99.90
30399;DHT22;17195;50.838;7.214;2022-07-03T07:26:30;20.80;99.90
30399;DHT22;17195;50.838;7.214;2022-07-03T07:28:56;20.90;99.90
30399;DHT22;17195;50.838;7.214;2022-07-03T07:31:21;21.00;99.90
30399;DHT22;17195;50.838;7.214;2022-07-03T07:33:47;21.10;99.90
30399;DHT22;17195;50.838;7.214;2022-07-03T07:36:12;21.10;99.90
30399;DHT22;17195;50.838;7.214;2022-07-03T07:38:38;21.10;99.90
30399;DHT22;17195;50.838;7.214;2022-07-03T07:41:03;21.20;99.90
30399;DHT22;17195;50.838;7.214;2022-07-03T07:43:29;21.20;99.90
30399;DHT22;17195;50.838;7.214;2022-07-03T07:45:54;21.20;99.90
30399;DHT22;17195;50.838;7.214;2022-07-03T07:48:20;21.30;99.90
30399;DHT22;17195;50.838;7.214;2022-07-03T07:50:45;21.40;99.90
30399;DHT22;17195;50.838;7.214;2022-07-03T07:53:11;21.50;99.90
30399;DHT22;17195;50.838;7.214;2022-07-03T07:55:37;21.60;99.90
30399;DHT22;17195;50.838;7.214;2022-07-03T07:58:02;21.70;99.90
30399;DHT22;17195;50.838;7.214;2022-07-03T08:00:28;21.90;99.90
30399;DHT22;17195;50.838;7.214;2022-07-03T08:02:54;21.90;99.90
30399;DHT22;17195;50.838;7.214;2022-07-03T08:05:38;22.00;99.90
30399;DHT22;17195;50.838;7.214;2022-07-03T08:08:14;22.00;99.90
30399;DHT22;17195;50.838;7.214;2022-07-03T08:10:45;22.10;99.90
30399;DHT22;17195;50.838;7.214;2022-07-03T08:13:12;22.10;99.90
30399;DHT22;17195;50.838;7.214;2022-07-03T08:15:39;22.10;99.90
30399;DHT22;17195;50.838;7.214;2022-07-03T08:18:05;22.30;99.90
30399;DHT22;17195;50.838;7.214;2022-07-03T08:20:31;22.40;99.90
30399;DHT22;17195;50.838;7.214;2022-07-03T08:22:57;22.60;99.90
30399;DHT22;17195;50.838;7.214;2022-07-03T08:25:23;22.60;99.90
30399;DHT22;17195;50.838;7.214;2022-07-03T08:27:48;22.70;99.90
30399;DHT22;17195;50.838;7.214;2022-07-03T08:30:14;22.70;99.90
30399;DHT22;17195;50.838;7.214;2022-07-03T08:32:43;22.70;99.90
30399;DHT22;17195;50.838;7.214;2022-07-03T08:35:09;22.70;99.90
30399;DHT22;17195;50.838;7.214;2022-07-03T08:37:35;22.80;99.90
30399;DHT22;17195;50.838;7.214;2022-07-03T08:40:05;23.00;99.90
30399;DHT22;17195;50.838;7.214;2022-07-03T08:42:32;23.10;99.90
30399;DHT22;17195;50.838;7.214;2022-07-03T08:45:01;23.20;99.90
30399;DHT22;17195;50.838;7.214;2022-07-03T08:47:27;23.20;99.90
30399;DHT22;17195;50.838;7.214;2022-07-03T08:49:54;23.30;99.90
30399;DHT22;17195;50.838;7.214;2022-07-03T08:52:22;23.40;99.90
30399;DHT22;17195;50.838;7.214;2022-07-03T08:54:48;23.40;99.90
30399;DHT22;17195;50.838;7.214;2022-07-03T08:57:13;23.50;99.90
30399;DHT22;17195;50.838;7.214;2022-07-03T08:59:40;23.60;99.90
30399;DHT22;17195;50.838;7.214;2022-07-03T09:02:06;23.80;99.90
30399;DHT22;17195;50.838;7.214;2022-07-03T09:04:33;23.80;99.90
30399;DHT22;17195;50.838;7.214;2022-07-03T09:06:59;23.80;99.90
30399;DHT22;17195;50.838;7.214;2022-07-03T09:09:26;23.90;99.90
30399;DHT22;17195;50.838;7.214;2022-07-03T09:11:51;24.00;99.70
30399;DHT22;17195;50.838;7.214;2022-07-03T09:14:18;24.00;98.40
30399;DHT22;17195;50.838;7.214;2022-07-03T09:16:43;24.10;99.00
30399;DHT22;17195;50.838;7.214;2022-07-03T09:19:09;24.30;98.90
30399;DHT22;17195;50.838;7.214;2022-07-03T09:21:39;24.40;98.30
30399;DHT22;17195;50.838;7.214;2022-07-03T09:24:06;24.50;97.90
30399;DHT22;17195;50.838;7.214;2022-07-03T09:26:33;24.50;96.20
30399;DHT22;17195;50.838;7.214;2022-07-03T09:28:58;24.50;96.20
30399;DHT22;17195;50.838;7.214;2022-07-03T09:31:26;24.60;95.50
30399;DHT22;17195;50.838;7.214;2022-07-03T09:36:44;24.70;94.90
30399;DHT22;17195;50.838;7.214;2022-07-03T09:39:29;24.80;94.30
30399;DHT22;17195;50.838;7.214;2022-07-03T09:42:04;24.90;94.10
30399;DHT22;17195;50.838;7.214;2022-07-03T09:44:36;25.00;93.20
30399;DHT22;17195;50.838;7.214;2022-07-03T09:52:24;25.00;92.70
30399;DHT22;17195;50.838;7.214;2022-07-03T09:54:50;25.20;92.70
30399;DHT22;17195;50.838;7.214;2022-07-03T09:57:16;25.20;92.40
30399;DHT22;17195;50.838;7.214;2022-07-03T09:59:41;25.20;92.40
30399;DHT22;17195;50.838;7.214;2022-07-03T10:02:08;25.40;93.00
30399;DHT22;17195;50.838;7.214;2022-07-03T10:04:34;25.40;92.60
30399;DHT22;17195;50.838;7.214;2022-07-03T10:07:00;25.50;92.20
30399;DHT22;17195;50.838;7.214;2022-07-03T10:09:28;25.50;91.70
30399;DHT22;17195;50.838;7.214;2022-07-03T10:11:56;25.60;91.20
30399;DHT22;17195;50.838;7.214;2022-07-03T10:14:27;25.90;90.80
30399;DHT22;17195;50.838;7.214;2022-07-03T10:16:52;25.90;90.10
30399;DHT22;17195;50.838;7.214;2022-07-03T10:19:20;26.00;90.30
30399;DHT22;17195;50.838;7.214;2022-07-03T10:21:54;26.10;90.40
30399;DHT22;17195;50.838;7.214;2022-07-03T10:24:22;26.40;91.60
30399;DHT22;17195;50.838;7.214;2022-07-03T10:26:49;26.40;89.80
30399;DHT22;17195;50.838;7.214;2022-07-03T10:29:15;26.60;88.50
30399;DHT22;17195;50.838;7.214;2022-07-03T10:31:43;26.70;88.50
30399;DHT22;17195;50.838;7.214;2022-07-03T10:34:10;26.80;88.40
30399;DHT22;17195;50.838;7.214;2022-07-03T10:36:37;27.00;88.30
30399;DHT22;17195;50.838;7.214;2022-07-03T10:39:06;27.20;87.90
30399;DHT22;17195;50.838;7.214;2022-07-03T10:41:39;27.30;86.20
30399;DHT22;17195;50.838;7.214;2022-07-03T10:44:24;27.20;86.40
30399;DHT22;17195;50.838;7.214;2022-07-03T10:47:37;27.10;85.30
30399;DHT22;17195;50.838;7.214;2022-07-03T10:50:31;27.10;83.80
30399;DHT22;17195;50.838;7.214;2022-07-03T10:53:34;26.90;84.00
30399;DHT22;17195;50.838;7.214;2022-07-03T10:56:05;27.10;88.20
30399;DHT22;17195;50.838;7.214;2022-07-03T10:58:31;27.00;83.80
30399;DHT22;17195;50.838;7.214;2022-07-03T11:00:57;27.20;84.60
30399;DHT22;17195;50.838;7.214;2022-07-03T11:03:58;27.30;84.00
30399;DHT22;17195;50.838;7.214;2022-07-03T11:09:16;27.10;81.20
30399;DHT22;17195;50.838;7.214;2022-07-03T11:11:46;27.10;81.10
30399;DHT22;17195;50.838;7.214;2022-07-03T11:14:28;27.20;80.60
30399;DHT22;17195;50.838;7.214;2022-07-03T11:17:19;27.10;80.20
30399;DHT22;17195;50.838;7.214;2022-07-03T11:19:47;27.20;79.90
30399;DHT22;17195;50.838;7.214;2022-07-03T11:22:54;27.20;80.00
30399;DHT22;17195;50.838;7.214;2022-07-03T11:25:22;27.20;79.20
30399;DHT22;17195;50.838;7.214;2022-07-03T11:27:50;27.20;79.10
30399;DHT22;17195;50.838;7.214;2022-07-03T11:30:18;27.20;78.30
30399;DHT22;17195;50.838;7.214;2022-07-03T11:32:48;27.20;78.10
30399;DHT22;17195;50.838;7.214;2022-07-03T11:35:43;27.40;75.40
30399;DHT22;17195;50.838;7.214;2022-07-03T11:38:10;27.40;77.30
30399;DHT22;17195;50.838;7.214;2022-07-03T11:40:41;27.70;75.50
30399;DHT22;17195;50.838;7.214;2022-07-03T11:43:09;27.90;75.60
30399;DHT22;17195;50.838;7.214;2022-07-03T11:45:38;28.10;72.30
30399;DHT22;17195;50.838;7.214;2022-07-03T11:48:13;28.40;70.60
30399;DHT22;17195;50.838;7.214;2022-07-03T11:50:43;28.70;68.90
30399;DHT22;17195;50.838;7.214;2022-07-03T11:53:23;29.00;68.90
30399;DHT22;17195;50.838;7.214;2022-07-03T11:55:51;29.00;69.30
30399;DHT22;17195;50.838;7.214;2022-07-03T11:58:17;28.70;67.90
30399;DHT22;17195;50.838;7.214;2022-07-03T12:00:43;28.60;69.50
30399;DHT22;17195;50.838;7.214;2022-07-03T12:03:14;28.80;69.70
30399;DHT22;17195;50.838;7.214;2022-07-03T12:05:51;29.00;68.10
30399;DHT22;17195;50.838;7.214;2022-07-03T12:08:22;29.10;68.90
30399;DHT22;17195;50.838;7.214;2022-07-03T12:10:48;29.10;69.50
30399;DHT22;17195;50.838;7.214;2022-07-03T12:13:20;28.90;68.60
30399;DHT22;17195;50.838;7.214;2022-07-03T12:15:47;29.40;67.80
30399;DHT22;17195;50.838;7.214;2022-07-03T12:18:13;29.70;67.00
30399;DHT22;17195;50.838;7.214;2022-07-03T12:20:38;29.60;65.70
30399;DHT22;17195;50.838;7.214;2022-07-03T12:23:04;29.40;66.10
30399;DHT22;17195;50.838;7.214;2022-07-03T12:25:30;29.70;67.20
30399;DHT22;17195;50.838;7.214;2022-07-03T12:27:55;29.90;67.20
30399;DHT22;17195;50.838;7.214;2022-07-03T12:30:22;30.10;65.40
30399;DHT22;17195;50.838;7.214;2022-07-03T12:32:50;30.00;65.00
30399;DHT22;17195;50.838;7.214;2022-07-03T12:35:23;30.10;64.90
30399;DHT22;17195;50.838;7.214;2022-07-03T12:37:49;30.40;63.70
30399;DHT22;17195;50.838;7.214;2022-07-03T12:40:15;30.60;63.00
30399;DHT22;17195;50.838;7.214;2022-07-03T12:42:48;30.40;63.40
30399;DHT22;17195;50.838;7.214;2022-07-03T12:45:19;30.60;62.30
30399;DHT22;17195;50.838;7.214;2022-07-03T12:47:46;30.60;61.50
30399;DHT22;17195;50.838;7.214;2022-07-03T12:50:21;30.60;61.70
30399;DHT22;17195;50.838;7.214;2022-07-03T12:52:55;30.60;61.70
30399;DHT22;17195;50.838;7.214;2022-07-03T12:55:28;30.30;62.20
30399;DHT22;17195;50.838;7.214;2022-07-03T12:58:11;30.30;62.30
30399;DHT22;17195;50.838;7.214;2022-07-03T13:00:56;30.50;62.30
30399;DHT22;17195;50.838;7.214;2022-07-03T13:03:32;30.60;61.40
30399;DHT22;17195;50.838;7.214;2022-07-03T13:06:00;30.90;61.20
30399;DHT22;17195;50.838;7.214;2022-07-03T13:08:25;31.10;60.80
30399;DHT22;17195;50.838;7.214;2022-07-03T13:10:59;31.20;60.40
30399;DHT22;17195;50.838;7.214;2022-07-03T13:13:25;31.00;59.90
30399;DHT22;17195;50.838;7.214;2022-07-03T13:15:51;31.00;60.00
30399;DHT22;17195;50.838;7.214;2022-07-03T13:18:17;30.90;59.80
30399;DHT22;17195;50.838;7.214;2022-07-03T13:20:43;30.70;60.50
30399;DHT22;17195;50.838;7.214;2022-07-03T13:23:09;30.20;60.20
30399;DHT22;17195;50.838;7.214;2022-07-03T13:25:38;30.20;61.70
30399;DHT22;17195;50.838;7.214;2022-07-03T13:28:14;29.90;62.60
30399;DHT22;17195;50.838;7.214;2022-07-03T13:30:41;29.60;63.50
30399;DHT22;17195;50.838;7.214;2022-07-03T13:33:08;29.20;63.60
30399;DHT22;17195;50.838;7.214;2022-07-03T13:35:34;28.90;64.10
30399;DHT22;17195;50.838;7.214;2022-07-03T13:38:00;28.90;64.80
30399;DHT22;17195;50.838;7.214;2022-07-03T13:40:25;28.90;66.30
30399;DHT22;17195;50.838;7.214;2022-07-03T13:42:51;28.90;64.60
30399;DHT22;17195;50.838;7.214;2022-07-03T13:45:17;28.70;64.80
30399;DHT22;17195;50.838;7.214;2022-07-03T13:47:42;28.80;65.70
30399;DHT22;17195;50.838;7.214;2022-07-03T13:50:08;29.10;65.10
30399;DHT22;17195;50.838;7.214;2022-07-03T13:52:34;29.30;64.90
30399;DHT22;17195;50.838;7.214;2022-07-03T13:55:00;29.40;63.90
30399;DHT22;17195;50.838;7.214;2022-07-03T13:57:25;29.10;64.10
30399;DHT22;17195;50.838;7.214;2022-07-03T13:59:51;28.70;64.40
30399;DHT22;17195;50.838;7.214;2022-07-03T14:02:16;28.30;65.60
30399;DHT22;17195;50.838;7.214;2022-07-03T14:04:42;28.50;65.50
30399;DHT22;17195;50.838;7.214;2022-07-03T14:07:07;28.50;65.70
30399;DHT22;17195;50.838;7.214;2022-07-03T14:09:33;28.30;65.70
30399;DHT22;17195;50.838;7.214;2022-07-03T14:11:59;28.10;66.60
30399;DHT22;17195;50.838;7.214;2022-07-03T14:14:25;28.40;66.50
30399;DHT22;17195;50.838;7.214;2022-07-03T14:16:50;28.50;65.40
30399;DHT22;17195;50.838;7.214;2022-07-03T14:19:16;28.40;65.10
30399;DHT22;17195;50.838;7.214;2022-07-03T14:21:41;28.20;66.30
30399;DHT22;17195;50.838;7.214;2022-07-03T14:24:07;28.00;65.90
30399;DHT22;17195;50.838;7.214;2022-07-03T14:26:33;27.90;66.50
30399;DHT22;17195;50.838;7.214;2022-07-03T14:29:16;28.10;66.90
30399;DHT22;17195;50.838;7.214;2022-07-03T14:32:01;28.10;65.90
30399;DHT22;17195;50.838;7.214;2022-07-03T14:34:46;28.50;66.50
30399;DHT22;17195;50.838;7.214;2022-07-03T14:37:11;28.90;64.60
30399;DHT22;17195;50.838;7.214;2022-07-03T14:39:37;29.00;65.30
30399;DHT22;17195;50.838;7.214;2022-07-03T14:42:03;29.30;66.00
30399;DHT22;17195;50.838;7.214;2022-07-03T14:44:29;29.60;64.70
30399;DHT22;17195;50.838;7.214;2022-07-03T14:46:55;30.10;64.10
30399;DHT22;17195;50.838;7.214;2022-07-03T14:49:21;30.70;62.90
30399;DHT22;17195;50.838;7.214;2022-07-03T14:51:46;31.10;61.00
30399;DHT22;17195;50.838;7.214;2022-07-03T14:54:17;31.30;60.80
30399;DHT22;17195;50.838;7.214;2022-07-03T14:56:51;30.90;60.40
30399;DHT22;17195;50.838;7.214;2022-07-03T14:59:22;30.60;61.20
30399;DHT22;17195;50.838;7.214;2022-07-03T15:01:52;30.60;60.90
30399;DHT22;17195;50.838;7.214;2022-07-03T15:04:40;31.40;60.20
30399;DHT22;17195;50.838;7.214;2022-07-03T15:07:06;32.00;58.90
30399;DHT22;17195;50.838;7.214;2022-07-03T15:09:37;31.90;58.30
30399;DHT22;17195;50.838;7.214;2022-07-03T15:12:04;32.40;57.60
30399;DHT22;17195;50.838;7.214;2022-07-03T15:14:51;32.50;57.50
30399;DHT22;17195;50.838;7.214;2022-07-03T15:17:20;33.40;55.70
30399;DHT22;17195;50.838;7.214;2022-07-03T15:19:47;34.20;55.20
30399;DHT22;17195;50.838;7.214;2022-07-03T15:22:14;35.50;53.20
30399;DHT22;17195;50.838;7.214;2022-07-03T15:24:43;38.00;49.40
30399;DHT22;17195;50.838;7.214;2022-07-03T15:27:12;39.10;45.70
30399;DHT22;17195;50.838;7.214;2022-07-03T15:29:39;40.70;43.00
30399;DHT22;17195;50.838;7.214;2022-07-03T15:32:04;41.30;40.80
30399;DHT22;17195;50.838;7.214;2022-07-03T15:34:30;41.80;38.60
30399;DHT22;17195;50.838;7.214;2022-07-03T15:36:58;43.20;37.40
30399;DHT22;17195;50.838;7.214;2022-07-03T15:48:34;46.10;30.50
30399;DHT22;17195;50.838;7.214;2022-07-03T15:51:22;47.30;28.90
30399;DHT22;17195;50.838;7.214;2022-07-03T15:53:59;48.60;27.30
30399;DHT22;17195;50.838;7.214;2022-07-03T15:56:29;47.80;26.50
30399;DHT22;17195;50.838;7.214;2022-07-03T15:59:03;47.30;27.40
30399;DHT22;17195;50.838;7.214;2022-07-03T16:01:39;47.10;26.40
30399;DHT22;17195;50.838;7.214;2022-07-03T16:04:28;46.70;27.20
30399;DHT22;17195;50.838;7.214;2022-07-03T16:06:54;42.30;28.60
30399;DHT22;17195;50.838;7.214;2022-07-03T16:09:21;40.30;32.40
30399;DHT22;17195;50.838;7.214;2022-07-03T16:11:47;40.30;31.50
30399;DHT22;17195;50.838;7.214;2022-07-03T16:14:14;38.80;33.20
30399;DHT22;17195;50.838;7.214;2022-07-03T16:16:41;37.10;35.40
30399;DHT22;17195;50.838;7.214;2022-07-03T16:19:08;34.40;38.90
30399;DHT22;17195;50.838;7.214;2022-07-03T16:21:37;32.50;42.30